sensor_id;sensor_type;location;lat;lon;timestamp;temperature;humidity
1137;DHT22;557;48.466;7.950;2022-11-20T00:01:47;7.90;87.50
1137;DHT22;557;48.466;7.950;2022-11-20T00:04:34;7.90;97.90
1137;DHT22;557;48.466;7.950;2022-11-20T00:07:20;7.90;99.90
1137;DHT22;557;48.466;7.950;2022-11-20T00:10:06;8.00;99.90
1137;DHT22;557;48.466;7.950;2022-11-20T00:12:51;7.90;99.90
1137;DHT22;557;48.466;7.950;2022-11-20T00:15:37;7.80;99.90
1137;DHT22;557;48.466;7.950;2022-11-20T00:18:22;7.80;99.90
1137;DHT22;557;48.466;7.950;2022-11-20T00:21:11;7.80;99.90
1137;DHT22;557;48.466;7.950;2022-11-20T00:23:58;7.80;99.90
1137;DHT22;557;48.466;7.950;2022-11-20T00:26:43;7.80;93.20
1137;DHT22;557;48.466;7.950;2022-11-20T00:29:28;7.80;99.90
1137;DHT22;557;48.466;7.950;2022-11-20T00:32:14;7.80;99.90
1137;DHT22;557;48.466;7.950;2022-11-20T00:34:59;7.80;99.90
1137;DHT22;557;48.466;7.950;2022-11-20T00:37:46;7.80;99.90
1137;DHT22;557;48.466;7.950;2022-11-20T00:40:32;7.80;99.90
1137;DHT22;557;48.466;7.950;2022-11-20T00:43:17;7.80;99.90
1137;DHT22;557;48.466;7.950;2022-11-20T00:46:05;7.80;99.90
1137;DHT22;557;48.466;7.950;2022-11-20T00:48:51;7.70;99.90
1137;DHT22;557;48.466;7.950;2022-11-20T00:51:37;7.70;99.90
1137;DHT22;557;48.466;7.950;2022-11-20T00:54:24;7.60;99.90
1137;DHT22;557;48.466;7.950;2022-11-20T00:57:09;7.60;99.90
1137;DHT22;557;48.466;7.950;2022-11-20T00:59:55;7.60;99.90
1137;DHT22;557;48.466;7.950;2022-11-20T01:02:40;7.60;99.90
1137;DHT22;557;48.466;7.950;2022-11-20T01:05:26;7.60;99.90
1137;DHT22;557;48.466;7.950;2022-11-20T01:08:11;7.60;99.90
1137;DHT22;557;48.466;7.950;2022-11-20T01:11:00;7.60;99.90
1137;DHT22;557;48.466;7.950;2022-11-20T01:13:48;7.60;99.90
1137;DHT22;557;48.466;7.950;2022-11-20T01:16:35;7.50;99.90
1137;DHT22;557;48.466;7.950;2022-11-20T01:19:22;7.50;99.90
1137;DHT22;557;48.466;7.950;2022-11-20T01:22:08;7.50;99.90
1137;DHT22;557;48.466;7.950;2022-11-20T01:24:54;7.50;99.90
1137;DHT22;557;48.466;7.950;2022-11-20T01:27:40;7.60;99.90
1137;DHT22;557;48.466;7.950;2022-11-20T01:30:26;7.50;99.90
1137;DHT22;557;48.466;7.950;2022-11-20T01:33:11;7.60;99.90
1137;DHT22;557;48.466;7.950;2022-11-20T01:36:03;7.50;99.90
1137;DHT22;557;48.466;7.950;2022-11-20T01:38:51;7.50;99.90
1137;DHT22;557;48.466;7.950;2022-11-20T01:41:38;7.60;96.90
1137;DHT22;557;48.466;7.950;2022-11-20T01:44:55;7.60;98.00
1137;DHT22;557;48.466;7.950;2022-11-20T01:47:43;7.50;94.80
1137;DHT22;557;48.466;7.950;2022-11-20T01:50:30;7.40;92.20
1137;DHT22;557;48.466;7.950;2022-11-20T01:53:19;7.50;76.10
1137;DHT22;557;48.466;7.950;2022-11-20T01:56:09;7.40;79.80
1137;DHT22;557;48.466;7.950;2022-11-20T01:58:59;7.40;55.50
1137;DHT22;557;48.466;7.950;2022-11-20T02:01:47;7.40;47.80
1137;DHT22;557;48.466;7.950;2022-11-20T02:04:33;7.50;42.80
1137;DHT22;557;48.466;7.950;2022-11-20T02:07:20;7.50;41.80
1137;DHT22;557;48.466;7.950;2022-11-20T02:10:06;7.50;37.60
1137;DHT22;557;48.466;7.950;2022-11-20T02:12:52;7.60;50.00
1137;DHT22;557;48.466;7.950;2022-11-20T02:15:56;7.50;31.60
1137;DHT22;557;48.466;7.950;2022-11-20T02:18:43;7.50;22.60
1137;DHT22;557;48.466;7.950;2022-11-20T02:21:34;7.50;11.20
1137;DHT22;557;48.466;7.950;2022-11-20T02:24:23;7.50;1.00
1137;DHT22;557;48.466;7.950;2022-11-20T02:27:10;7.50;1.00
1137;DHT22;557;48.466;7.950;2022-11-20T02:29:59;7.40;1.00
1137;DHT22;557;48.466;7.950;2022-11-20T02:32:46;7.50;1.00
1137;DHT22;557;48.466;7.950;2022-11-20T02:35:45;7.40;1.00
1137;DHT22;557;48.466;7.950;2022-11-20T02:38:31;7.40;1.00
1137;DHT22;557;48.466;7.950;2022-11-20T02:41:18;7.40;1.00
1137;DHT22;557;48.466;7.950;2022-11-20T02:44:04;7.40;1.00
1137;DHT22;557;48.466;7.950;2022-11-20T02:46:50;7.40;1.00
1137;DHT22;557;48.466;7.950;2022-11-20T02:49:36;7.40;1.00
1137;DHT22;557;48.466;7.950;2022-11-20T02:52:21;7.30;1.00
1137;DHT22;557;48.466;7.950;2022-11-20T02:55:07;7.30;1.00
1137;DHT22;557;48.466;7.950;2022-11-20T02:57:54;7.30;1.00
1137;DHT22;557;48.466;7.950;2022-11-20T03:00:40;7.40;1.00
1137;DHT22;557;48.466;7.950;2022-11-20T03:03:25;7.40;1.00
1137;DHT22;557;48.466;7.950;2022-11-20T03:06:11;7.50;1.00
1137;DHT22;557;48.466;7.950;2022-11-20T03:08:56;7.40;1.00
1137;DHT22;557;48.466;7.950;2022-11-20T03:11:42;7.40;1.00
1137;DHT22;557;48.466;7.950;2022-11-20T03:14:28;7.40;1.00
1137;DHT22;557;48.466;7.950;2022-11-20T03:17:15;7.40;1.00
1137;DHT22;557;48.466;7.950;2022-11-20T03:20:01;7.40;1.00
1137;DHT22;557;48.466;7.950;2022-11-20T03:22:46;7.40;1.00
1137;DHT22;557;48.466;7.950;2022-11-20T03:25:32;7.40;1.00
1137;DHT22;557;48.466;7.950;2022-11-20T03:28:17;7.40;1.00
1137;DHT22;557;48.466;7.950;2022-11-20T03:31:10;7.40;1.00
1137;DHT22;557;48.466;7.950;2022-11-20T03:33:56;7.40;1.00
1137;DHT22;557;48.466;7.950;2022-11-20T03:36:43;7.40;1.00
1137;DHT22;557;48.466;7.950;2022-11-20T03:39:28;7.40;1.00
1137;DHT22;557;48.466;7.950;2022-11-20T03:42:14;7.60;1.00
1137;DHT22;557;48.466;7.950;2022-11-20T03:45:14;7.40;1.00
1137;DHT22;557;48.466;7.950;2022-11-20T03:48:01;7.40;1.00
1137;DHT22;557;48.466;7.950;2022-11-20T03:50:47;7.50;1.00
1137;DHT22;557;48.466;7.950;2022-11-20T03:53:32;7.40;1.00
1137;DHT22;557;48.466;7.950;2022-11-20T03:56:21;7.40;1.00
1137;DHT22;557;48.466;7.950;2022-11-20T03:59:10;7.50;1.00
1137;DHT22;557;48.466;7.950;2022-11-20T04:01:55;7.40;1.00
1137;DHT22;557;48.466;7.950;2022-11-20T04:04:42;7.40;1.00
1137;DHT22;557;48.466;7.950;2022-11-20T04:07:28;7.40;3.00
1137;DHT22;557;48.466;7.950;2022-11-20T04:10:13;7.40;11.50
1137;DHT22;557;48.466;7.950;2022-11-20T04:12:58;7.40;21.20
1137;DHT22;557;48.466;7.950;2022-11-20T04:15:44;7.40;27.70
1137;DHT22;557;48.466;7.950;2022-11-20T04:18:30;7.40;32.90
1137;DHT22;557;48.466;7.950;2022-11-20T04:21:17;7.40;34.30
1137;DHT22;557;48.466;7.950;2022-11-20T04:24:02;7.40;43.80
1137;DHT22;557;48.466;7.950;2022-11-20T04:26:48;7.30;42.00
1137;DHT22;557;48.466;7.950;2022-11-20T04:29:34;7.30;45.90
1137;DHT22;557;48.466;7.950;2022-11-20T04:32:19;7.30;55.60
1137;DHT22;557;48.466;7.950;2022-11-20T04:35:05;7.30;61.50
1137;DHT22;557;48.466;7.950;2022-11-20T04:37:52;7.30;58.30
1137;DHT22;557;48.466;7.950;2022-11-20T04:40:38;7.30;76.70
1137;DHT22;557;48.466;7.950;2022-11-20T04:43:23;7.30;87.50
1137;DHT22;557;48.466;7.950;2022-11-20T04:46:09;7.20;99.90
1137;DHT22;557;48.466;7.950;2022-11-20T04:48:54;7.30;99.90
1137;DHT22;557;48.466;7.950;2022-11-20T04:51:40;7.30;99.90
1137;DHT22;557;48.466;7.950;2022-11-20T04:54:27;7.30;99.90
1137;DHT22;557;48.466;7.950;2022-11-20T04:57:14;7.20;99.90
1137;DHT22;557;48.466;7.950;2022-11-20T04:59:59;7.20;99.90
1137;DHT22;557;48.466;7.950;2022-11-20T05:02:45;7.20;99.90
1137;DHT22;557;48.466;7.950;2022-11-20T05:05:32;7.20;99.90
1137;DHT22;557;48.466;7.950;2022-11-20T05:08:18;7.20;99.90
1137;DHT22;557;48.466;7.950;2022-11-20T05:11:08;7.20;99.90
1137;DHT22;557;48.466;7.950;2022-11-20T05:13:55;7.30;99.90
1137;DHT22;557;48.466;7.950;2022-11-20T05:16:40;7.20;99.90
1137;DHT22;557;48.466;7.950;2022-11-20T05:19:27;7.20;99.90
1137;DHT22;557;48.466;7.950;2022-11-20T05:22:12;7.20;99.90
1137;DHT22;557;48.466;7.950;2022-11-20T05:24:58;7.20;99.90
1137;DHT22;557;48.466;7.950;2022-11-20T05:27:46;7.20;99.90
1137;DHT22;557;48.466;7.950;2022-11-20T05:30:32;7.20;99.90
1137;DHT22;557;48.466;7.950;2022-11-20T05:33:17;7.20;99.90
1137;DHT22;557;48.466;7.950;2022-11-20T05:36:04;7.20;99.90
1137;DHT22;557;48.466;7.950;2022-11-20T05:38:50;7.20;99.90
1137;DHT22;557;48.466;7.950;2022-11-20T05:41:35;7.20;99.90
1137;DHT22;557;48.466;7.950;2022-11-20T05:44:22;7.30;99.90
1137;DHT22;557;48.466;7.950;2022-11-20T05:47:08;7.30;99.90
1137;DHT22;557;48.466;7.950;2022-11-20T05:49:53;7.30;99.90
1137;DHT22;557;48.466;7.950;2022-11-20T05:52:39;7.30;99.90
1137;DHT22;557;48.466;7.950;2022-11-20T05:55:25;7.30;99.90
1137;DHT22;557;48.466;7.950;2022-11-20T05:58:10;7.30;99.90
1137;DHT22;557;48.466;7.950;2022-11-20T06:01:05;7.30;99.90
1137;DHT22;557;48.466;7.950;2022-11-20T06:03:51;7.30;99.90
1137;DHT22;557;48.466;7.950;2022-11-20T06:06:37;7.30;99.90
1137;DHT22;557;48.466;7.950;2022-11-20T06:09:23;7.30;99.90
1137;DHT22;557;48.466;7.950;2022-11-20T06:12:09;7.30;99.90
1137;DHT22;557;48.466;7.950;2022-11-20T06:14:55;7.30;99.90
1137;DHT22;557;48.466;7.950;2022-11-20T06:17:42;7.30;99.90
1137;DHT22;557;48.466;7.950;2022-11-20T06:20:28;7.30;99.90
1137;DHT22;557;48.466;7.950;2022-11-20T06:23:14;7.30;99.90
1137;DHT22;557;48.466;7.950;2022-11-20T06:26:02;7.30;99.90
1137;DHT22;557;48.466;7.950;2022-11-20T06:28:48;7.30;99.90
1137;DHT22;557;48.466;7.950;2022-11-20T06:31:34;7.20;99.90
1137;DHT22;557;48.466;7.950;2022-11-20T06:34:23;7.30;99.90
1137;DHT22;557;48.466;7.950;2022-11-20T06:37:09;7.20;99.90
1137;DHT22;557;48.466;7.950;2022-11-20T06:39:54;7.20;99.90
1137;DHT22;557;48.466;7.950;2022-11-20T06:42:40;7.30;98.80
1137;DHT22;557;48.466;7.950;2022-11-20T06:45:26;7.20;99.90
1137;DHT22;557;48.466;7.950;2022-11-20T06:48:11;7.30;99.90
1137;DHT22;557;48.466;7.950;2022-11-20T06:50:59;7.30;99.40
1137;DHT22;557;48.466;7.950;2022-11-20T06:53:48;7.30;95.90
1137;DHT22;557;48.466;7.950;2022-11-20T06:56:33;7.20;95.30
1137;DHT22;557;48.466;7.950;2022-11-20T06:59:19;7.30;90.50
1137;DHT22;557;48.466;7.950;2022-11-20T07:02:05;7.20;92.00
1137;DHT22;557;48.466;7.950;2022-11-20T07:04:51;7.30;85.70
1137;DHT22;557;48.466;7.950;2022-11-20T07:07:38;7.30;79.40
1137;DHT22;557;48.466;7.950;2022-11-20T07:10:24;7.30;69.40
1137;DHT22;557;48.466;7.950;2022-11-20T07:13:10;7.30;91.30
1137;DHT22;557;48.466;7.950;2022-11-20T07:15:59;7.30;65.00
1137;DHT22;557;48.466;7.950;2022-11-20T07:18:45;7.40;80.60
1137;DHT22;557;48.466;7.950;2022-11-20T07:21:31;7.30;67.60
1137;DHT22;557;48.466;7.950;2022-11-20T07:24:17;7.30;67.90
1137;DHT22;557;48.466;7.950;2022-11-20T07:27:04;7.40;85.80
1137;DHT22;557;48.466;7.950;2022-11-20T07:29:49;7.40;93.50
1137;DHT22;557;48.466;7.950;2022-11-20T07:32:35;7.30;95.80
1137;DHT22;557;48.466;7.950;2022-11-20T07:35:20;7.40;97.20
1137;DHT22;557;48.466;7.950;2022-11-20T07:38:07;7.40;99.90
1137;DHT22;557;48.466;7.950;2022-11-20T07:40:55;7.40;97.90
1137;DHT22;557;48.466;7.950;2022-11-20T07:43:41;7.40;99.20
1137;DHT22;557;48.466;7.950;2022-11-20T07:46:27;7.40;99.90
1137;DHT22;557;48.466;7.950;2022-11-20T07:49:13;7.40;99.90
1137;DHT22;557;48.466;7.950;2022-11-20T07:51:58;7.40;99.90
1137;DHT22;557;48.466;7.950;2022-11-20T07:54:44;7.40;99.90
1137;DHT22;557;48.466;7.950;2022-11-20T07:57:31;7.40;99.90
1137;DHT22;557;48.466;7.950;2022-11-20T08:00:17;7.40;99.90
1137;DHT22;557;48.466;7.950;2022-11-20T08:03:03;7.40;99.90
1137;DHT22;557;48.466;7.950;2022-11-20T08:05:49;7.40;99.90
1137;DHT22;557;48.466;7.950;2022-11-20T08:08:35;7.40;99.90
1137;DHT22;557;48.466;7.950;2022-11-20T08:11:20;7.30;99.90
1137;DHT22;557;48.466;7.950;2022-11-20T08:14:25;7.30;99.90
1137;DHT22;557;48.466;7.950;2022-11-20T08:17:12;7.30;99.90
1137;DHT22;557;48.466;7.950;2022-11-20T08:19:57;7.30;99.90
1137;DHT22;557;48.466;7.950;2022-11-20T08:22:42;7.30;99.90
1137;DHT22;557;48.466;7.950;2022-11-20T08:25:29;7.30;99.90
1137;DHT22;557;48.466;7.950;2022-11-20T08:28:14;7.30;99.90
1137;DHT22;557;48.466;7.950;2022-11-20T08:31:02;7.30;99.90
1137;DHT22;557;48.466;7.950;2022-11-20T08:33:48;7.30;99.90
1137;DHT22;557;48.466;7.950;2022-11-20T08:36:34;7.40;99.90
1137;DHT22;557;48.466;7.950;2022-11-20T08:39:19;7.40;99.90
1137;DHT22;557;48.466;7.950;2022-11-20T08:42:06;7.50;99.90
1137;DHT22;557;48.466;7.950;2022-11-20T08:44:52;7.50;99.90
1137;DHT22;557;48.466;7.950;2022-11-20T08:47:39;7.50;99.90
1137;DHT22;557;48.466;7.950;2022-11-20T08:50:25;7.50;99.90
1137;DHT22;557;48.466;7.950;2022-11-20T08:53:11;7.50;99.90
1137;DHT22;557;48.466;7.950;2022-11-20T08:55:57;7.50;99.90
1137;DHT22;557;48.466;7.950;2022-11-20T08:58:42;7.60;99.90
1137;DHT22;557;48.466;7.950;2022-11-20T09:01:29;7.60;99.90
1137;DHT22;557;48.466;7.950;2022-11-20T09:04:17;7.60;99.90
1137;DHT22;557;48.466;7.950;2022-11-20T09:07:02;7.70;99.90
1137;DHT22;557;48.466;7.950;2022-11-20T09:09:48;7.70;99.90
1137;DHT22;557;48.466;7.950;2022-11-20T09:12:33;7.80;99.90
1137;DHT22;557;48.466;7.950;2022-11-20T09:15:19;7.70;99.90
1137;DHT22;557;48.466;7.950;2022-11-20T09:18:05;7.70;99.90
1137;DHT22;557;48.466;7.950;2022-11-20T09:20:55;7.70;99.90
1137;DHT22;557;48.466;7.950;2022-11-20T09:23:41;7.70;99.90
1137;DHT22;557;48.466;7.950;2022-11-20T09:26:26;7.80;99.90
1137;DHT22;557;48.466;7.950;2022-11-20T09:29:12;7.80;99.90
1137;DHT22;557;48.466;7.950;2022-11-20T09:31:58;7.80;99.90
1137;DHT22;557;48.466;7.950;2022-11-20T09:34:43;7.90;99.90
1137;DHT22;557;48.466;7.950;2022-11-20T09:37:30;8.00;99.90
1137;DHT22;557;48.466;7.950;2022-11-20T09:40:19;8.00;99.90
1137;DHT22;557;48.466;7.950;2022-11-20T09:43:11;8.10;99.90
1137;DHT22;557;48.466;7.950;2022-11-20T09:46:04;8.10;99.90
1137;DHT22;557;48.466;7.950;2022-11-20T09:49:04;8.10;99.90
1137;DHT22;557;48.466;7.950;2022-11-20T09:51:58;8.20;99.90
1137;DHT22;557;48.466;7.950;2022-11-20T09:54:45;8.20;99.90
1137;DHT22;557;48.466;7.950;2022-11-20T09:57:35;8.20;99.90
1137;DHT22;557;48.466;7.950;2022-11-20T10:00:22;8.20;98.60
1137;DHT22;557;48.466;7.950;2022-11-20T10:03:14;8.30;99.90
1137;DHT22;557;48.466;7.950;2022-11-20T10:06:00;8.40;99.90
1137;DHT22;557;48.466;7.950;2022-11-20T10:08:51;8.40;65.70
1137;DHT22;557;48.466;7.950;2022-11-20T10:11:48;8.50;59.90
1137;DHT22;557;48.466;7.950;2022-11-20T10:14:46;8.60;46.50
1137;DHT22;557;48.466;7.950;2022-11-20T10:21:01;8.60;23.70
1137;DHT22;557;48.466;7.950;2022-11-20T10:27:08;8.70;1.00
1137;DHT22;557;48.466;7.950;2022-11-20T10:30:03;8.60;1.00
1137;DHT22;557;48.466;7.950;2022-11-20T10:32:52;8.70;1.00
1137;DHT22;557;48.466;7.950;2022-11-20T10:35:43;8.70;1.00
1137;DHT22;557;48.466;7.950;2022-11-20T10:38:34;8.70;1.00
1137;DHT22;557;48.466;7.950;2022-11-20T10:41:24;8.70;1.00
1137;DHT22;557;48.466;7.950;2022-11-20T10:44:15;8.60;10.20
1137;DHT22;557;48.466;7.950;2022-11-20T10:47:22;8.50;38.00
1137;DHT22;557;48.466;7.950;2022-11-20T10:50:11;8.40;28.30
1137;DHT22;557;48.466;7.950;2022-11-20T10:53:08;8.40;76.60
1137;DHT22;557;48.466;7.950;2022-11-20T10:56:00;8.50;37.20
1137;DHT22;557;48.466;7.950;2022-11-20T10:59:00;8.90;31.30
1137;DHT22;557;48.466;7.950;2022-11-20T11:01:49;9.50;1.00
1137;DHT22;557;48.466;7.950;2022-11-20T11:04:38;10.10;1.00
1137;DHT22;557;48.466;7.950;2022-11-20T11:07:29;10.50;1.00
1137;DHT22;557;48.466;7.950;2022-11-20T11:10:18;10.80;99.90
1137;DHT22;557;48.466;7.950;2022-11-20T11:13:04;10.90;99.90
1137;DHT22;557;48.466;7.950;2022-11-20T11:15:50;11.20;99.90
1137;DHT22;557;48.466;7.950;2022-11-20T11:18:37;11.40;1.00
1137;DHT22;557;48.466;7.950;2022-11-20T11:21:25;11.30;99.90
1137;DHT22;557;48.466;7.950;2022-11-20T11:24:20;11.40;1.00
1137;DHT22;557;48.466;7.950;2022-11-20T11:27:12;11.20;19.80
1137;DHT22;557;48.466;7.950;2022-11-20T11:30:13;11.00;57.90
1137;DHT22;557;48.466;7.950;2022-11-20T11:33:03;10.90;99.90
1137;DHT22;557;48.466;7.950;2022-11-20T11:35:53;10.70;1.00
1137;DHT22;557;48.466;7.950;2022-11-20T11:38:42;10.90;1.00
1137;DHT22;557;48.466;7.950;2022-11-20T11:41:31;10.70;1.00
1137;DHT22;557;48.466;7.950;2022-11-20T11:44:21;10.60;99.90
1137;DHT22;557;48.466;7.950;2022-11-20T11:47:31;10.40;69.50
1137;DHT22;557;48.466;7.950;2022-11-20T11:50:20;10.20;95.90
1137;DHT22;557;48.466;7.950;2022-11-20T11:53:13;10.10;99.90
1137;DHT22;557;48.466;7.950;2022-11-20T11:56:05;10.00;1.00
1137;DHT22;557;48.466;7.950;2022-11-20T11:58:54;9.90;99.90
1137;DHT22;557;48.466;7.950;2022-11-20T12:01:47;9.80;1.00
1137;DHT22;557;48.466;7.950;2022-11-20T12:04:43;9.80;99.90
1137;DHT22;557;48.466;7.950;2022-11-20T12:07:39;9.80;99.90
1137;DHT22;557;48.466;7.950;2022-11-20T12:10:41;9.80;99.90
1137;DHT22;557;48.466;7.950;2022-11-20T12:13:37;10.20;99.90
1137;DHT22;557;48.466;7.950;2022-11-20T12:16:25;10.40;1.00
1137;DHT22;557;48.466;7.950;2022-11-20T12:19:12;10.70;1.00
1137;DHT22;557;48.466;7.950;2022-11-20T12:22:05;10.80;1.00
1137;DHT22;557;48.466;7.950;2022-11-20T12:24:55;10.80;1.00
1137;DHT22;557;48.466;7.950;2022-11-20T12:27:57;10.60;1.00
1137;DHT22;557;48.466;7.950;2022-11-20T12:30:53;11.20;1.00
1137;DHT22;557;48.466;7.950;2022-11-20T12:33:50;11.50;99.90
1137;DHT22;557;48.466;7.950;2022-11-20T12:36:42;11.60;99.90
1137;DHT22;557;48.466;7.950;2022-11-20T12:39:34;11.60;99.90
1137;DHT22;557;48.466;7.950;2022-11-20T12:42:34;10.90;99.90
1137;DHT22;557;48.466;7.950;2022-11-20T12:46:14;10.60;99.90
1137;DHT22;557;48.466;7.950;2022-11-20T12:49:15;11.00;99.90
1137;DHT22;557;48.466;7.950;2022-11-20T12:52:34;11.30;99.90
1137;DHT22;557;48.466;7.950;2022-11-20T12:55:33;11.00;99.90
1137;DHT22;557;48.466;7.950;2022-11-20T12:58:25;10.60;99.90
1137;DHT22;557;48.466;7.950;2022-11-20T13:01:27;10.40;99.90
1137;DHT22;557;48.466;7.950;2022-11-20T13:04:47;10.30;99.90
1137;DHT22;557;48.466;7.950;2022-11-20T13:07:35;10.20;99.90
1137;DHT22;557;48.466;7.950;2022-11-20T13:10:26;10.10;99.90
1137;DHT22;557;48.466;7.950;2022-11-20T13:13:21;10.10;99.90
1137;DHT22;557;48.466;7.950;2022-11-20T13:16:13;10.20;99.90
1137;DHT22;557;48.466;7.950;2022-11-20T13:19:03;10.30;99.90
1137;DHT22;557;48.466;7.950;2022-11-20T13:21:50;10.50;99.90
1137;DHT22;557;48.466;7.950;2022-11-20T13:24:36;10.70;99.90
1137;DHT22;557;48.466;7.950;2022-11-20T13:27:22;10.70;99.90
1137;DHT22;557;48.466;7.950;2022-11-20T13:30:15;10.60;99.90
1137;DHT22;557;48.466;7.950;2022-11-20T13:33:06;10.80;99.90
1137;DHT22;557;48.466;7.950;2022-11-20T13:35:59;11.60;99.90
1137;DHT22;557;48.466;7.950;2022-11-20T13:38:47;12.40;99.90
1137;DHT22;557;48.466;7.950;2022-11-20T13:41:35;12.40;99.90
1137;DHT22;557;48.466;7.950;2022-11-20T13:44:26;12.60;99.90
1137;DHT22;557;48.466;7.950;2022-11-20T13:47:20;12.60;99.90
1137;DHT22;557;48.466;7.950;2022-11-20T13:50:09;12.40;99.90
1137;DHT22;557;48.466;7.950;2022-11-20T13:53:02;12.50;99.90
1137;DHT22;557;48.466;7.950;2022-11-20T13:55:54;12.80;99.90
1137;DHT22;557;48.466;7.950;2022-11-20T13:58:50;12.40;99.90
1137;DHT22;557;48.466;7.950;2022-11-20T14:01:38;11.60;99.90
1137;DHT22;557;48.466;7.950;2022-11-20T14:04:28;11.00;99.90
1137;DHT22;557;48.466;7.950;2022-11-20T14:07:15;10.60;99.90
1137;DHT22;557;48.466;7.950;2022-11-20T14:10:03;10.50;99.90
1137;DHT22;557;48.466;7.950;2022-11-20T14:12:48;10.50;99.90
1137;DHT22;557;48.466;7.950;2022-11-20T14:15:35;10.40;99.90
1137;DHT22;557;48.466;7.950;2022-11-20T14:18:25;10.40;99.90
1137;DHT22;557;48.466;7.950;2022-11-20T14:21:10;10.40;99.90
1137;DHT22;557;48.466;7.950;2022-11-20T14:24:03;10.40;99.90
1137;DHT22;557;48.466;7.950;2022-11-20T14:26:51;10.20;99.90
1137;DHT22;557;48.466;7.950;2022-11-20T14:29:37;10.10;99.90
1137;DHT22;557;48.466;7.950;2022-11-20T14:32:28;10.00;99.90
1137;DHT22;557;48.466;7.950;2022-11-20T14:35:24;9.90;99.90
1137;DHT22;557;48.466;7.950;2022-11-20T14:38:12;9.80;99.90
1137;DHT22;557;48.466;7.950;2022-11-20T14:41:06;9.90;99.90
1137;DHT22;557;48.466;7.950;2022-11-20T14:43:56;9.70;99.90
1137;DHT22;557;48.466;7.950;2022-11-20T14:46:43;9.70;99.90
1137;DHT22;557;48.466;7.950;2022-11-20T14:49:30;9.60;99.90
1137;DHT22;557;48.466;7.950;2022-11-20T14:52:18;9.50;99.90
1137;DHT22;557;48.466;7.950;2022-11-20T14:55:05;9.50;99.90
1137;DHT22;557;48.466;7.950;2022-11-20T14:57:55;9.50;99.90
1137;DHT22;557;48.466;7.950;2022-11-20T15:00:54;9.40;99.90
1137;DHT22;557;48.466;7.950;2022-11-20T15:03:40;9.40;99.90
1137;DHT22;557;48.466;7.950;2022-11-20T15:06:27;9.40;99.90
1137;DHT22;557;48.466;7.950;2022-11-20T15:09:15;9.40;99.90
1137;DHT22;557;48.466;7.950;2022-11-20T15:12:02;9.20;99.90
1137;DHT22;557;48.466;7.950;2022-11-20T15:14:48;9.10;99.90
1137;DHT22;557;48.466;7.950;2022-11-20T15:17:36;9.10;1.00
1137;DHT22;557;48.466;7.950;2022-11-20T15:20:26;9.00;1.00
1137;DHT22;557;48.466;7.950;2022-11-20T15:23:15;8.90;1.00
1137;DHT22;557;48.466;7.950;2022-11-20T15:26:04;8.90;99.90
1137;DHT22;557;48.466;7.950;2022-11-20T15:28:50;8.90;1.00
1137;DHT22;557;48.466;7.950;2022-11-20T15:31:36;8.80;99.90
1137;DHT22;557;48.466;7.950;2022-11-20T15:34:27;8.70;99.90
1137;DHT22;557;48.466;7.950;2022-11-20T15:37:13;8.70;1.00
1137;DHT22;557;48.466;7.950;2022-11-20T15:39:58;8.70;1.00
1137;DHT22;557;48.466;7.950;2022-11-20T15:42:45;8.60;99.90
1137;DHT22;557;48.466;7.950;2022-11-20T15:45:46;8.60;15.50
1137;DHT22;557;48.466;7.950;2022-11-20T15:48:36;8.60;1.00
1137;DHT22;557;48.466;7.950;2022-11-20T15:51:27;8.60;1.00
1137;DHT22;557;48.466;7.950;2022-11-20T15:54:14;8.70;1.00
1137;DHT22;557;48.466;7.950;2022-11-20T15:57:01;8.70;99.90
1137;DHT22;557;48.466;7.950;2022-11-20T15:59:47;8.70;1.00
1137;DHT22;557;48.466;7.950;2022-11-20T16:02:32;8.70;1.00
1137;DHT22;557;48.466;7.950;2022-11-20T16:05:19;8.70;1.00
1137;DHT22;557;48.466;7.950;2022-11-20T16:08:08;8.70;99.90
1137;DHT22;557;48.466;7.950;2022-11-20T16:10:54;8.60;1.00
1137;DHT22;557;48.466;7.950;2022-11-20T16:13:40;8.60;99.90
1137;DHT22;557;48.466;7.950;2022-11-20T16:16:43;8.60;1.00
1137;DHT22;557;48.466;7.950;2022-11-20T16:19:29;8.60;1.00
1137;DHT22;557;48.466;7.950;2022-11-20T16:22:14;8.60;1.00
1137;DHT22;557;48.466;7.950;2022-11-20T16:25:01;8.60;1.00
1137;DHT22;557;48.466;7.950;2022-11-20T16:27:47;8.60;90.30
1137;DHT22;557;48.466;7.950;2022-11-20T16:30:32;8.50;99.90
1137;DHT22;557;48.466;7.950;2022-11-20T16:33:18;8.60;99.90
1137;DHT22;557;48.466;7.950;2022-11-20T16:36:08;8.60;1.00
1137;DHT22;557;48.466;7.950;2022-11-20T16:38:57;8.50;1.00
1137;DHT22;557;48.466;7.950;2022-11-20T16:41:45;8.60;1.00
1137;DHT22;557;48.466;7.950;2022-11-20T16:44:31;8.60;99.90
1137;DHT22;557;48.466;7.950;2022-11-20T16:47:18;8.60;99.90
1137;DHT22;557;48.466;7.950;2022-11-20T16:50:04;8.50;12.70
1137;DHT22;557;48.466;7.950;2022-11-20T16:52:50;8.60;1.00
1137;DHT22;557;48.466;7.950;2022-11-20T16:55:36;8.50;99.90
1137;DHT22;557;48.466;7.950;2022-11-20T16:58:22;8.50;1.00
1137;DHT22;557;48.466;7.950;2022-11-20T17:01:09;8.50;99.90
1137;DHT22;557;48.466;7.950;2022-11-20T17:03:56;8.50;56.10
1137;DHT22;557;48.466;7.950;2022-11-20T17:06:43;8.50;1.00
1137;DHT22;557;48.466;7.950;2022-11-20T17:09:28;8.50;99.90
1137;DHT22;557;48.466;7.950;2022-11-20T17:12:14;8.50;99.90
1137;DHT22;557;48.466;7.950;2022-11-20T17:15:01;8.50;20.00
1137;DHT22;557;48.466;7.950;2022-11-20T17:17:46;8.60;1.00
1137;DHT22;557;48.466;7.950;2022-11-20T17:20:32;8.60;99.90
1137;DHT22;557;48.466;7.950;2022-11-20T17:23:17;8.60;99.90
1137;DHT22;557;48.466;7.950;2022-11-20T17:26:04;8.60;1.00
1137;DHT22;557;48.466;7.950;2022-11-20T17:28:53;8.60;99.90
1137;DHT22;557;48.466;7.950;2022-11-20T17:31:40;8.60;99.90
1137;DHT22;557;48.466;7.950;2022-11-20T17:34:26;8.60;99.90
1137;DHT22;557;48.466;7.950;2022-11-20T17:37:12;8.50;99.90
1137;DHT22;557;48.466;7.950;2022-11-20T17:39:58;8.50;99.90
1137;DHT22;557;48.466;7.950;2022-11-20T17:42:43;8.50;1.00
1137;DHT22;557;48.466;7.950;2022-11-20T17:45:29;8.40;99.90
1137;DHT22;557;48.466;7.950;2022-11-20T17:48:16;8.30;1.00
1137;DHT22;557;48.466;7.950;2022-11-20T17:51:03;8.20;1.00
1137;DHT22;557;48.466;7.950;2022-11-20T17:53:50;8.10;99.90
1137;DHT22;557;48.466;7.950;2022-11-20T17:56:36;8.10;99.90
1137;DHT22;557;48.466;7.950;2022-11-20T17:59:39;7.90;99.90
1137;DHT22;557;48.466;7.950;2022-11-20T18:02:25;7.60;1.00
1137;DHT22;557;48.466;7.950;2022-11-20T18:05:12;7.50;1.00
1137;DHT22;557;48.466;7.950;2022-11-20T18:07:58;7.30;1.00
1137;DHT22;557;48.466;7.950;2022-11-20T18:10:44;7.20;1.00
1137;DHT22;557;48.466;7.950;2022-11-20T18:13:30;7.20;7.70
1137;DHT22;557;48.466;7.950;2022-11-20T18:16:38;7.10;12.40
1137;DHT22;557;48.466;7.950;2022-11-20T18:19:27;7.20;44.00
1137;DHT22;557;48.466;7.950;2022-11-20T18:22:15;7.10;32.10
1137;DHT22;557;48.466;7.950;2022-11-20T18:25:01;7.00;73.50
1137;DHT22;557;48.466;7.950;2022-11-20T18:27:47;7.00;98.50
1137;DHT22;557;48.466;7.950;2022-11-20T18:30:33;7.00;57.30
1137;DHT22;557;48.466;7.950;2022-11-20T18:33:20;7.00;72.30
1137;DHT22;557;48.466;7.950;2022-11-20T18:36:10;7.00;14.70
1137;DHT22;557;48.466;7.950;2022-11-20T18:38:58;7.00;4.50
1137;DHT22;557;48.466;7.950;2022-11-20T18:41:47;6.90;9.30
1137;DHT22;557;48.466;7.950;2022-11-20T18:44:50;6.90;1.00
1137;DHT22;557;48.466;7.950;2022-11-20T18:47:37;6.90;14.40
1137;DHT22;557;48.466;7.950;2022-11-20T18:50:23;6.90;1.00
1137;DHT22;557;48.466;7.950;2022-11-20T18:53:08;6.80;1.70
1137;DHT22;557;48.466;7.950;2022-11-20T18:55:55;6.60;6.30
1137;DHT22;557;48.466;7.950;2022-11-20T18:58:41;6.50;25.10
1137;DHT22;557;48.466;7.950;2022-11-20T19:01:27;6.40;24.90
1137;DHT22;557;48.466;7.950;2022-11-20T19:04:14;6.40;38.40
1137;DHT22;557;48.466;7.950;2022-11-20T19:07:01;6.40;25.90